sensor_id;sensor_type;location;lat;lon;timestamp;pressure;altitude;pressure_sealevel;temperature;humidity
63204;BME280;49297;43.210;27.914;2023-10-19T00:01:56;101414.63;;;11.17;71.54
63204;BME280;49297;43.210;27.914;2023-10-19T00:04:24;101419.09;;;11.16;71.68
63204;BME280;49297;43.210;27.914;2023-10-19T00:06:49;101412.09;;;11.15;71.37
63204;BME280;49297;43.210;27.914;2023-10-19T00:09:15;101412.09;;;11.15;71.35
63204;BME280;49297;43.210;27.914;2023-10-19T00:11:41;101410.31;;;11.16;71.80
63204;BME280;49297;43.210;27.914;2023-10-19T00:14:06;101408.75;;;11.13;71.41
63204;BME280;49297;43.210;27.914;2023-10-19T00:16:44;101404.53;;;11.11;71.76
63204;BME280;49297;43.210;27.914;2023-10-19T00:19:18;101405.50;;;11.10;71.99
63204;BME280;49297;43.210;27.914;2023-10-19T00:21:45;101405.63;;;11.08;72.21
63204;BME280;49297;43.210;27.914;2023-10-19T00:24:19;101405.84;;;11.05;72.29
63204;BME280;49297;43.210;27.914;2023-10-19T00:26:47;101406.13;;;11.02;72.35
63204;BME280;49297;43.210;27.914;2023-10-19T00:29:20;101401.06;;;10.99;72.37
63204;BME280;49297;43.210;27.914;2023-10-19T00:32:05;101407.47;;;10.96;72.82
63204;BME280;49297;43.210;27.914;2023-10-19T00:34:32;101405.19;;;10.92;73.12
63204;BME280;49297;43.210;27.914;2023-10-19T00:36:59;101401.81;;;10.90;73.12
63204;BME280;49297;43.210;27.914;2023-10-19T00:39:36;101396.88;;;10.85;73.36
63204;BME280;49297;43.210;27.914;2023-10-19T00:42:19;101399.03;;;10.80;73.60
63204;BME280;49297;43.210;27.914;2023-10-19T00:44:50;101400.84;;;10.79;73.33
63204;BME280;49297;43.210;27.914;2023-10-19T00:47:15;101397.38;;;10.79;73.54
63204;BME280;49297;43.210;27.914;2023-10-19T00:49:47;101389.44;;;10.79;74.17
63204;BME280;49297;43.210;27.914;2023-10-19T00:52:13;101395.56;;;10.79;73.82
63204;BME280;49297;43.210;27.914;2023-10-19T00:54:45;101394.00;;;10.77;74.06
63204;BME280;49297;43.210;27.914;2023-10-19T00:57:14;101391.47;;;10.75;74.25
63204;BME280;49297;43.210;27.914;2023-10-19T00:59:45;101394.00;;;10.77;74.20
63204;BME280;49297;43.210;27.914;2023-10-19T01:02:15;101399.44;;;10.75;74.20
63204;BME280;49297;43.210;27.914;2023-10-19T01:04:51;101397.13;;;10.71;74.22
63204;BME280;49297;43.210;27.914;2023-10-19T01:07:27;101390.53;;;10.65;74.15
63204;BME280;49297;43.210;27.914;2023-10-19T01:09:54;101388.72;;;10.65;73.88
63204;BME280;49297;43.210;27.914;2023-10-19T01:12:25;101389.91;;;10.61;73.40
63204;BME280;49297;43.210;27.914;2023-10-19T01:15:10;101390.16;;;10.58;73.93
63204;BME280;49297;43.210;27.914;2023-10-19T01:17:39;101396.31;;;10.59;73.15
63204;BME280;49297;43.210;27.914;2023-10-19T01:20:09;101394.72;;;10.56;73.04
63204;BME280;49297;43.210;27.914;2023-10-19T01:23:08;101389.06;;;10.50;73.24
63204;BME280;49297;43.210;27.914;2023-10-19T01:25:46;101392.69;;;10.48;73.26
63204;BME280;49297;43.210;27.914;2023-10-19T01:28:28;101389.44;;;10.45;72.99
63204;BME280;49297;43.210;27.914;2023-10-19T01:31:20;101383.19;;;10.46;73.01
63204;BME280;49297;43.210;27.914;2023-10-19T01:33:59;101379.81;;;10.44;72.87
63204;BME280;49297;43.210;27.914;2023-10-19T01:36:26;101377.06;;;10.45;72.91
63204;BME280;49297;43.210;27.914;2023-10-19T01:38:53;101381.25;;;10.48;72.94
63204;BME280;49297;43.210;27.914;2023-10-19T01:41:24;101380.19;;;10.51;72.71
63204;BME280;49297;43.210;27.914;2023-10-19T01:43:51;101377.53;;;10.51;73.18
63204;BME280;49297;43.210;27.914;2023-10-19T01:46:22;101378.38;;;10.51;72.92
63204;BME280;49297;43.210;27.914;2023-10-19T01:48:51;101373.19;;;10.50;72.28
63204;BME280;49297;43.210;27.914;2023-10-19T01:51:23;101366.47;;;10.45;72.86
63204;BME280;49297;43.210;27.914;2023-10-19T01:53:50;101363.69;;;10.47;72.79
63204;BME280;49297;43.210;27.914;2023-10-19T01:56:16;101367.06;;;10.49;72.73
63204;BME280;49297;43.210;27.914;2023-10-19T01:58:43;101369.59;;;10.51;72.59
63204;BME280;49297;43.210;27.914;2023-10-19T02:01:09;101365.13;;;10.51;73.12
63204;BME280;49297;43.210;27.914;2023-10-19T02:03:38;101368.75;;;10.50;72.76
63204;BME280;49297;43.210;27.914;2023-10-19T02:06:14;101374.88;;;10.51;72.55
63204;BME280;49297;43.210;27.914;2023-10-19T02:08:48;101379.22;;;10.52;72.53
63204;BME280;49297;43.210;27.914;2023-10-19T02:11:16;101376.94;;;10.47;72.68
63204;BME280;49297;43.210;27.914;2023-10-19T02:13:44;101369.22;;;10.44;72.44
63204;BME280;49297;43.210;27.914;2023-10-19T02:16:13;101371.75;;;10.45;72.85
63204;BME280;49297;43.210;27.914;2023-10-19T02:18:41;101375.13;;;10.47;72.60
63204;BME280;49297;43.210;27.914;2023-10-19T02:21:07;101374.28;;;10.47;72.48
63204;BME280;49297;43.210;27.914;2023-10-19T02:23:33;101369.09;;;10.45;72.34
63204;BME280;49297;43.210;27.914;2023-10-19T02:26:01;101369.94;;;10.46;72.27
63204;BME280;49297;43.210;27.914;2023-10-19T02:28:34;101366.22;;;10.48;72.08
63204;BME280;49297;43.210;27.914;2023-10-19T02:31:03;101362.72;;;10.48;72.43
63204;BME280;49297;43.210;27.914;2023-10-19T02:33:47;101373.06;;;10.51;72.39
63204;BME280;49297;43.210;27.914;2023-10-19T02:36:17;101372.34;;;10.49;72.43
63204;BME280;49297;43.210;27.914;2023-10-19T02:38:45;101368.88;;;10.48;72.01
63204;BME280;49297;43.210;27.914;2023-10-19T02:41:14;101376.81;;;10.48;72.17
63204;BME280;49297;43.210;27.914;2023-10-19T02:43:41;101371.41;;;10.50;72.24
63204;BME280;49297;43.210;27.914;2023-10-19T02:46:06;101367.06;;;10.49;72.31
63204;BME280;49297;43.210;27.914;2023-10-19T02:48:32;101363.47;;;10.50;72.28
63204;BME280;49297;43.210;27.914;2023-10-19T02:50:58;101367.06;;;10.49;72.28
63204;BME280;49297;43.210;27.914;2023-10-19T02:53:31;101362.59;;;10.50;71.80
63204;BME280;49297;43.210;27.914;2023-10-19T02:55:58;101356.47;;;10.49;72.28
63204;BME280;49297;43.210;27.914;2023-10-19T02:58:27;101364.53;;;10.47;72.40
63204;BME280;49297;43.210;27.914;2023-10-19T03:00:53;101352.28;;;10.46;72.07
63204;BME280;49297;43.210;27.914;2023-10-19T03:03:20;101354.91;;;10.46;72.07
63204;BME280;49297;43.210;27.914;2023-10-19T03:05:45;101351.69;;;10.43;72.55
63204;BME280;49297;43.210;27.914;2023-10-19T03:08:11;101353.56;;;10.41;72.49
63204;BME280;49297;43.210;27.914;2023-10-19T03:10:41;101351.69;;;10.43;72.30
63204;BME280;49297;43.210;27.914;2023-10-19T03:13:09;101349.84;;;10.43;73.26
63204;BME280;49297;43.210;27.914;2023-10-19T03:15:35;101355.16;;;10.43;72.83
63204;BME280;49297;43.210;27.914;2023-10-19T03:18:01;101349.16;;;10.41;73.68
63204;BME280;49297;43.210;27.914;2023-10-19T03:20:28;101348.28;;;10.41;73.21
63204;BME280;49297;43.210;27.914;2023-10-19T03:22:54;101345.63;;;10.41;74.01
63204;BME280;49297;43.210;27.914;2023-10-19T03:25:23;101344.69;;;10.42;73.51
63204;BME280;49297;43.210;27.914;2023-10-19T03:28:07;101347.31;;;10.42;73.73
63204;BME280;49297;43.210;27.914;2023-10-19T03:30:37;101349.25;;;10.40;73.69
63204;BME280;49297;43.210;27.914;2023-10-19T03:33:06;101347.44;;;10.40;73.97
63204;BME280;49297;43.210;27.914;2023-10-19T03:35:37;101333.72;;;10.35;73.91
63204;BME280;49297;43.210;27.914;2023-10-19T03:38:04;101341.66;;;10.24;73.35
63204;BME280;49297;43.210;27.914;2023-10-19T03:40:39;101335.63;;;10.22;74.00
63204;BME280;49297;43.210;27.914;2023-10-19T03:43:05;101337.78;;;10.17;73.79
63204;BME280;49297;43.210;27.914;2023-10-19T03:45:42;101339.72;;;10.15;74.37
63204;BME280;49297;43.210;27.914;2023-10-19T03:48:12;101339.72;;;10.15;74.49
63204;BME280;49297;43.210;27.914;2023-10-19T03:50:38;101324.91;;;10.12;74.76
63204;BME280;49297;43.210;27.914;2023-10-19T03:53:04;101341.16;;;10.07;74.19
63204;BME280;49297;43.210;27.914;2023-10-19T03:55:32;101337.53;;;10.08;74.67
63204;BME280;49297;43.210;27.914;2023-10-19T03:58:03;101336.81;;;10.06;74.22
63204;BME280;49297;43.210;27.914;2023-10-19T04:00:30;101336.81;;;10.06;74.38
63204;BME280;49297;43.210;27.914;2023-10-19T04:02:58;101342.13;;;10.06;74.50
63204;BME280;49297;43.210;27.914;2023-10-19T04:05:24;101342.34;;;10.03;73.90
63204;BME280;49297;43.210;27.914;2023-10-19T04:07:51;101335.72;;;9.98;74.35
63204;BME280;49297;43.210;27.914;2023-10-19T04:10:20;101336.00;;;9.95;74.09
63204;BME280;49297;43.210;27.914;2023-10-19T04:12:55;101343.44;;;9.89;74.51
63204;BME280;49297;43.210;27.914;2023-10-19T04:15:25;101332.47;;;9.83;74.53
63204;BME280;49297;43.210;27.914;2023-10-19T04:17:52;101334.41;;;9.81;74.11
63204;BME280;49297;43.210;27.914;2023-10-19T04:20:21;101347.72;;;9.79;74.21
63204;BME280;49297;43.210;27.914;2023-10-19T04:23:07;101331.03;;;9.79;74.90
63204;BME280;49297;43.210;27.914;2023-10-19T04:25:36;101329.44;;;9.76;74.87
63204;BME280;49297;43.210;27.914;2023-10-19T04:28:02;101339.53;;;9.71;74.75
63204;BME280;49297;43.210;27.914;2023-10-19T04:30:28;101328.13;;;9.70;75.19
63204;BME280;49297;43.210;27.914;2023-10-19T04:32:55;101337.50;;;9.75;75.26
63204;BME280;49297;43.210;27.914;2023-10-19T04:35:23;101338.22;;;9.77;74.40
63204;BME280;49297;43.210;27.914;2023-10-19T04:37:53;101340.84;;;9.77;75.16
63204;BME280;49297;43.210;27.914;2023-10-19T04:40:22;101335.47;;;9.78;74.67
63204;BME280;49297;43.210;27.914;2023-10-19T04:42:49;101337.88;;;9.81;75.19
63204;BME280;49297;43.210;27.914;2023-10-19T04:45:15;101342.94;;;9.84;74.75
63204;BME280;49297;43.210;27.914;2023-10-19T04:47:41;101345.22;;;9.89;74.93
63204;BME280;49297;43.210;27.914;2023-10-19T04:50:07;101349.66;;;9.88;74.44
63204;BME280;49297;43.210;27.914;2023-10-19T04:52:33;101353.16;;;9.89;74.28
63204;BME280;49297;43.210;27.914;2023-10-19T04:54:59;101367.25;;;9.89;74.18
63204;BME280;49297;43.210;27.914;2023-10-19T04:57:26;101361.94;;;9.89;74.52
63204;BME280;49297;43.210;27.914;2023-10-19T04:59:52;101364.59;;;9.89;74.36
63204;BME280;49297;43.210;27.914;2023-10-19T05:02:17;101358.44;;;9.89;74.10
63204;BME280;49297;43.210;27.914;2023-10-19T05:04:45;101363.97;;;9.86;73.94
63204;BME280;49297;43.210;27.914;2023-10-19T05:07:11;101359.88;;;9.82;73.87
63204;BME280;49297;43.210;27.914;2023-10-19T05:09:43;101363.59;;;9.79;73.63
63204;BME280;49297;43.210;27.914;2023-10-19T05:12:09;101363.59;;;9.79;73.82
63204;BME280;49297;43.210;27.914;2023-10-19T05:14:38;101361.69;;;9.81;74.25
63204;BME280;49297;43.210;27.914;2023-10-19T05:17:04;101357.22;;;9.82;74.31
63204;BME280;49297;43.210;27.914;2023-10-19T05:19:30;101361.69;;;9.81;73.47
63204;BME280;49297;43.210;27.914;2023-10-19T05:21:56;101360.72;;;9.82;74.11
63204;BME280;49297;43.210;27.914;2023-10-19T05:24:22;101353.16;;;9.89;73.67
63204;BME280;49297;43.210;27.914;2023-10-19T05:26:48;101354.50;;;9.95;74.21
63204;BME280;49297;43.210;27.914;2023-10-19T05:29:13;101357.50;;;10.01;74.38
63204;BME280;49297;43.210;27.914;2023-10-19T05:31:39;101363.16;;;10.08;74.39
63204;BME280;49297;43.210;27.914;2023-10-19T05:34:04;101369.78;;;10.14;74.28
63204;BME280;49297;43.210;27.914;2023-10-19T05:36:30;101359.47;;;10.22;73.75
63204;BME280;49297;43.210;27.914;2023-10-19T05:38:57;101361.59;;;10.28;73.98
63204;BME280;49297;43.210;27.914;2023-10-19T05:41:23;101364.53;;;10.36;73.54
63204;BME280;49297;43.210;27.914;2023-10-19T05:43:48;101364.16;;;10.41;73.56
63204;BME280;49297;43.210;27.914;2023-10-19T05:46:14;101360.94;;;10.48;73.47
63204;BME280;49297;43.210;27.914;2023-10-19T05:48:43;101360.31;;;10.56;73.65
63204;BME280;49297;43.210;27.914;2023-10-19T05:51:10;101358.88;;;10.63;73.31
63204;BME280;49297;43.210;27.914;2023-10-19T05:53:36;101360.78;;;10.73;72.78
63204;BME280;49297;43.210;27.914;2023-10-19T05:56:02;101361.84;;;10.81;73.50
63204;BME280;49297;43.210;27.914;2023-10-19T05:58:28;101367.13;;;10.93;72.69
63204;BME280;49297;43.210;27.914;2023-10-19T06:00:57;101365.28;;;11.04;72.84
63204;BME280;49297;43.210;27.914;2023-10-19T06:03:23;101363.44;;;11.16;72.38
63204;BME280;49297;43.210;27.914;2023-10-19T06:05:49;101360.88;;;11.26;72.32
63204;BME280;49297;43.210;27.914;2023-10-19T06:08:15;101364.56;;;11.35;72.15
63204;BME280;49297;43.210;27.914;2023-10-19T06:10:40;101362.72;;;11.47;71.89
63204;BME280;49297;43.210;27.914;2023-10-19T06:13:07;101354.84;;;11.56;71.55
63204;BME280;49297;43.210;27.914;2023-10-19T06:15:35;101364.53;;;11.67;71.60
63204;BME280;49297;43.210;27.914;2023-10-19T06:18:00;101362.81;;;11.77;71.32
63204;BME280;49297;43.210;27.914;2023-10-19T06:20:29;101359.09;;;11.90;71.36
63204;BME280;49297;43.210;27.914;2023-10-19T06:22:57;101357.84;;;12.05;71.22
63204;BME280;49297;43.210;27.914;2023-10-19T06:25:29;101365.31;;;12.21;70.96
63204;BME280;49297;43.210;27.914;2023-10-19T06:27:55;101370.28;;;12.35;70.65
63204;BME280;49297;43.210;27.914;2023-10-19T06:30:22;101358.31;;;12.51;70.64
63204;BME280;49297;43.210;27.914;2023-10-19T06:32:51;101366.75;;;12.66;70.39
63204;BME280;49297;43.210;27.914;2023-10-19T06:35:17;101360.94;;;12.82;70.10
63204;BME280;49297;43.210;27.914;2023-10-19T06:37:44;101353.53;;;12.95;70.04
63204;BME280;49297;43.210;27.914;2023-10-19T06:40:10;101361.22;;;13.08;69.60
63204;BME280;49297;43.210;27.914;2023-10-19T06:42:44;101363.63;;;13.21;69.24
63204;BME280;49297;43.210;27.914;2023-10-19T06:45:13;101362.69;;;13.31;69.01
63204;BME280;49297;43.210;27.914;2023-10-19T06:47:40;101361.84;;;13.41;69.09
63204;BME280;49297;43.210;27.914;2023-10-19T06:50:07;101360.19;;;13.49;68.66
63204;BME280;49297;43.210;27.914;2023-10-19T06:52:39;101355.66;;;13.60;68.56
63204;BME280;49297;43.210;27.914;2023-10-19T06:55:05;101363.50;;;13.71;68.05
63204;BME280;49297;43.210;27.914;2023-10-19T06:57:31;101364.16;;;13.83;67.74
63204;BME280;49297;43.210;27.914;2023-10-19T06:59:58;101369.03;;;13.97;67.61
63204;BME280;49297;43.210;27.914;2023-10-19T07:02:24;101358.38;;;14.07;67.66
63204;BME280;49297;43.210;27.914;2023-10-19T07:04:51;101360.84;;;14.18;67.44
63204;BME280;49297;43.210;27.914;2023-10-19T07:07:17;101356.34;;;14.28;67.22
63204;BME280;49297;43.210;27.914;2023-10-19T07:09:43;101352.78;;;14.38;66.73
63204;BME280;49297;43.210;27.914;2023-10-19T07:12:09;101346.56;;;14.47;66.90
63204;BME280;49297;43.210;27.914;2023-10-19T07:14:37;101356.22;;;14.58;66.62
63204;BME280;49297;43.210;27.914;2023-10-19T07:17:02;101341.19;;;14.66;66.58
63204;BME280;49297;43.210;27.914;2023-10-19T07:19:28;101343.66;;;14.78;66.03
63204;BME280;49297;43.210;27.914;2023-10-19T07:21:54;101342.75;;;14.87;66.09
63204;BME280;49297;43.210;27.914;2023-10-19T07:24:23;101340.47;;;14.92;65.60
63204;BME280;49297;43.210;27.914;2023-10-19T07:26:49;101339.72;;;15.00;65.52
63204;BME280;49297;43.210;27.914;2023-10-19T07:29:33;101338.25;;;15.06;65.47
63204;BME280;49297;43.210;27.914;2023-10-19T07:32:01;101341.00;;;15.14;65.29
63204;BME280;49297;43.210;27.914;2023-10-19T07:34:31;101338.41;;;15.22;65.26
63204;BME280;49297;43.210;27.914;2023-10-19T07:36:56;101343.81;;;15.30;65.37
63204;BME280;49297;43.210;27.914;2023-10-19T07:39:24;101335.19;;;15.36;65.09
63204;BME280;49297;43.210;27.914;2023-10-19T07:41:50;101332.75;;;15.43;65.19
63204;BME280;49297;43.210;27.914;2023-10-19T07:44:16;101328.31;;;15.52;65.13
63204;BME280;49297;43.210;27.914;2023-10-19T07:46:41;101326.72;;;15.59;65.29
63204;BME280;49297;43.210;27.914;2023-10-19T07:49:07;101321.44;;;15.67;65.14
63204;BME280;49297;43.210;27.914;2023-10-19T07:51:33;101322.53;;;15.74;64.71
63204;BME280;49297;43.210;27.914;2023-10-19T07:53:59;101316.25;;;15.84;64.75
63204;BME280;49297;43.210;27.914;2023-10-19T07:56:25;101310.78;;;15.93;64.45
63204;BME280;49297;43.210;27.914;2023-10-19T07:58:50;101313.34;;;16.03;64.50
63204;BME280;49297;43.210;27.914;2023-10-19T08:01:16;101311.56;;;16.12;64.83
63204;BME280;49297;43.210;27.914;2023-10-19T08:03:42;101313.41;;;16.20;64.56
63204;BME280;49297;43.210;27.914;2023-10-19T08:06:09;101318.13;;;16.26;64.22
63204;BME280;49297;43.210;27.914;2023-10-19T08:08:35;101318.47;;;16.31;64.52
63204;BME280;49297;43.210;27.914;2023-10-19T08:11:00;101310.13;;;16.34;64.40
63204;BME280;49297;43.210;27.914;2023-10-19T08:13:26;101313.31;;;16.37;64.55
63204;BME280;49297;43.210;27.914;2023-10-19T08:15:52;101311.53;;;16.46;64.40
63204;BME280;49297;43.210;27.914;2023-10-19T08:18:18;101313.38;;;16.54;64.20
63204;BME280;49297;43.210;27.914;2023-10-19T08:20:44;101312.59;;;16.62;64.41
63204;BME280;49297;43.210;27.914;2023-10-19T08:23:14;101308.09;;;16.70;64.11
63204;BME280;49297;43.210;27.914;2023-10-19T08:25:42;101310.78;;;16.79;63.80
63204;BME280;49297;43.210;27.914;2023-10-19T08:28:08;101307.34;;;16.86;62.82
63204;BME280;49297;43.210;27.914;2023-10-19T08:30:33;101293.44;;;16.91;62.77
63204;BME280;49297;43.210;27.914;2023-10-19T08:32:59;101306.19;;;16.97;62.12
63204;BME280;49297;43.210;27.914;2023-10-19T08:35:27;101303.66;;;17.04;61.69
63204;BME280;49297;43.210;27.914;2023-10-19T08:37:53;101306.34;;;17.12;61.35
63204;BME280;49297;43.210;27.914;2023-10-19T08:40:19;101310.03;;;17.19;60.91
63204;BME280;49297;43.210;27.914;2023-10-19T08:42:45;101310.22;;;17.26;60.94
63204;BME280;49297;43.210;27.914;2023-10-19T08:45:11;101301.66;;;17.30;60.74
63204;BME280;49297;43.210;27.914;2023-10-19T08:50:13;101305.00;;;17.41;60.62
63204;BME280;49297;43.210;27.914;2023-10-19T08:52:41;101297.81;;;17.49;60.69
63204;BME280;49297;43.210;27.914;2023-10-19T08:55:06;101301.47;;;17.57;60.85
63204;BME280;49297;43.210;27.914;2023-10-19T08:57:35;101301.97;;;17.68;60.44
63204;BME280;49297;43.210;27.914;2023-10-19T09:00:01;101302.81;;;17.77;60.21
63204;BME280;49297;43.210;27.914;2023-10-19T09:02:31;101299.44;;;17.83;59.98
63204;BME280;49297;43.210;27.914;2023-10-19T09:04:58;101289.91;;;17.89;59.61
63204;BME280;49297;43.210;27.914;2023-10-19T09:07:25;101293.88;;;17.93;59.29
63204;BME280;49297;43.210;27.914;2023-10-19T09:09:56;101289.56;;;17.92;59.29
63204;BME280;49297;43.210;27.914;2023-10-19T09:12:22;101292.41;;;17.99;59.54
63204;BME280;49297;43.210;27.914;2023-10-19T09:14:48;101290.69;;;18.06;59.65
63204;BME280;49297;43.210;27.914;2023-10-19T09:17:15;101279.09;;;18.14;59.49
63204;BME280;49297;43.210;27.914;2023-10-19T09:19:43;101281.75;;;18.22;59.51
63204;BME280;49297;43.210;27.914;2023-10-19T09:22:10;101277.38;;;18.29;59.81
63204;BME280;49297;43.210;27.914;2023-10-19T09:24:48;101275.28;;;18.39;60.33
63204;BME280;49297;43.210;27.914;2023-10-19T09:27:18;101267.03;;;18.49;60.77
63204;BME280;49297;43.210;27.914;2023-10-19T09:29:44;101276.22;;;18.55;61.00
63204;BME280;49297;43.210;27.914;2023-10-19T09:32:10;101268.47;;;18.60;61.24
63204;BME280;49297;43.210;27.914;2023-10-19T09:34:39;101270.44;;;18.66;61.19
63204;BME280;49297;43.210;27.914;2023-10-19T09:37:06;101259.31;;;18.77;60.96
63204;BME280;49297;43.210;27.914;2023-10-19T09:39:32;101251.94;;;18.79;61.48
63204;BME280;49297;43.210;27.914;2023-10-19T09:44:37;101250.91;;;18.80;61.42
63204;BME280;49297;43.210;27.914;2023-10-19T09:47:08;101242.84;;;18.80;60.96
63204;BME280;49297;43.210;27.914;2023-10-19T09:49:36;101236.75;;;18.72;60.66
63204;BME280;49297;43.210;27.914;2023-10-19T09:52:02;101245.44;;;18.74;60.52
63204;BME280;49297;43.210;27.914;2023-10-19T09:57:02;101219.75;;;18.79;59.94
63204;BME280;49297;43.210;27.914;2023-10-19T09:59:33;101224.59;;;18.84;59.89
63204;BME280;49297;43.210;27.914;2023-10-19T10:02:13;101223.94;;;18.82;58.81
63204;BME280;49297;43.210;27.914;2023-10-19T10:04:40;101220.06;;;18.85;58.40
63204;BME280;49297;43.210;27.914;2023-10-19T10:07:06;101216.66;;;18.91;58.01
63204;BME280;49297;43.210;27.914;2023-10-19T10:09:42;101221.63;;;19.02;58.17
63204;BME280;49297;43.210;27.914;2023-10-19T10:12:18;101204.97;;;19.07;57.03
63204;BME280;49297;43.210;27.914;2023-10-19T10:15:01;101200.88;;;19.11;55.94
63204;BME280;49297;43.210;27.914;2023-10-19T10:17:27;101191.00;;;19.11;55.82
63204;BME280;49297;43.210;27.914;2023-10-19T10:19:55;101192.84;;;19.11;56.07
63204;BME280;49297;43.210;27.914;2023-10-19T10:22:22;101189.16;;;19.12;56.45
63204;BME280;49297;43.210;27.914;2023-10-19T10:24:48;101173.22;;;19.10;56.76
63204;BME280;49297;43.210;27.914;2023-10-19T10:27:19;101163.88;;;19.06;56.51
63204;BME280;49297;43.210;27.914;2023-10-19T10:29:58;101163.25;;;19.04;56.73
63204;BME280;49297;43.210;27.914;2023-10-19T10:35:09;101154.59;;;18.94;55.94
63204;BME280;49297;43.210;27.914;2023-10-19T10:37:38;101153.13;;;18.91;55.37
63204;BME280;49297;43.210;27.914;2023-10-19T10:40:06;101142.00;;;18.94;55.70
63204;BME280;49297;43.210;27.914;2023-10-19T10:42:32;101150.91;;;18.95;56.05
63204;BME280;49297;43.210;27.914;2023-10-19T10:44:59;101144.06;;;18.92;55.92
63204;BME280;49297;43.210;27.914;2023-10-19T10:47:25;101136.56;;;18.88;55.27
63204;BME280;49297;43.210;27.914;2023-10-19T10:49:53;101128.53;;;18.88;55.12
63204;BME280;49297;43.210;27.914;2023-10-19T10:52:26;101124.81;;;18.89;55.33
63204;BME280;49297;43.210;27.914;2023-10-19T10:54:54;101122.78;;;18.91;55.07
63204;BME280;49297;43.210;27.914;2023-10-19T10:57:20;101111.03;;;18.92;54.57
63204;BME280;49297;43.210;27.914;2023-10-19T10:59:46;101114.72;;;18.91;54.84
63204;BME280;49297;43.210;27.914;2023-10-19T11:02:18;101111.03;;;18.92;54.94
63204;BME280;49297;43.210;27.914;2023-10-19T11:04:45;101111.03;;;18.92;54.74
63204;BME280;49297;43.210;27.914;2023-10-19T11:07:18;101106.50;;;18.92;54.91
63204;BME280;49297;43.210;27.914;2023-10-19T11:09:45;101106.97;;;18.96;53.82
63204;BME280;49297;43.210;27.914;2023-10-19T11:12:11;101108.47;;;18.98;53.90
63204;BME280;49297;43.210;27.914;2023-10-19T11:14:37;101101.88;;;19.01;53.72
63204;BME280;49297;43.210;27.914;2023-10-19T11:17:12;101102.16;;;19.06;52.84
63204;BME280;49297;43.210;27.914;2023-10-19T11:19:39;101098.28;;;19.09;52.83
63204;BME280;49297;43.210;27.914;2023-10-19T11:22:09;101094.41;;;19.11;52.97
63204;BME280;49297;43.210;27.914;2023-10-19T11:24:36;101103.91;;;19.14;53.50
63204;BME280;49297;43.210;27.914;2023-10-19T11:27:05;101101.06;;;19.15;53.66
63204;BME280;49297;43.210;27.914;2023-10-19T11:29:33;101106.06;;;19.18;53.09
63204;BME280;49297;43.210;27.914;2023-10-19T11:32:00;101102.56;;;19.18;52.53
63204;BME280;49297;43.210;27.914;2023-10-19T11:34:27;101105.03;;;19.19;52.40
63204;BME280;49297;43.210;27.914;2023-10-19T11:36:54;101091.25;;;19.23;52.16
63204;BME280;49297;43.210;27.914;2023-10-19T11:39:22;101085.53;;;19.26;52.04
63204;BME280;49297;43.210;27.914;2023-10-19T11:41:49;101083.38;;;19.36;52.17
63204;BME280;49297;43.210;27.914;2023-10-19T11:44:15;101077.06;;;19.44;52.07
63204;BME280;49297;43.210;27.914;2023-10-19T11:46:40;101078.00;;;19.51;51.46
63204;BME280;49297;43.210;27.914;2023-10-19T11:49:06;101069.84;;;19.59;49.51
63204;BME280;49297;43.210;27.914;2023-10-19T11:51:32;101063.97;;;19.70;48.61
63204;BME280;49297;43.210;27.914;2023-10-19T11:53:57;101072.28;;;19.90;48.16
63204;BME280;49297;43.210;27.914;2023-10-19T11:56:23;101061.78;;;20.17;47.35
63204;BME280;49297;43.210;27.914;2023-10-19T11:58:52;101063.94;;;20.50;46.22
63204;BME280;49297;43.210;27.914;2023-10-19T12:01:18;101059.63;;;20.77;45.40
63204;BME280;49297;43.210;27.914;2023-10-19T12:03:44;101068.00;;;20.96;45.70
63204;BME280;49297;43.210;27.914;2023-10-19T12:06:11;101065.69;;;21.27;45.88
63204;BME280;49297;43.210;27.914;2023-10-19T12:08:39;101064.00;;;21.61;46.21
63204;BME280;49297;43.210;27.914;2023-10-19T12:11:05;101055.19;;;21.88;46.48
63204;BME280;49297;43.210;27.914;2023-10-19T12:13:40;101054.16;;;22.15;46.27
63204;BME280;49297;43.210;27.914;2023-10-19T12:16:06;101057.53;;;22.44;45.93
63204;BME280;49297;43.210;27.914;2023-10-19T12:18:32;101053.56;;;22.60;45.56
63204;BME280;49297;43.210;27.914;2023-10-19T12:20:58;101057.03;;;22.94;45.05
63204;BME280;49297;43.210;27.914;2023-10-19T12:23:26;101062.00;;;23.24;43.22
63204;BME280;49297;43.210;27.914;2023-10-19T12:25:52;101042.16;;;23.50;43.23
63204;BME280;49297;43.210;27.914;2023-10-19T12:28:18;101052.56;;;23.85;42.76
63204;BME280;49297;43.210;27.914;2023-10-19T12:30:44;101047.13;;;23.91;43.10
63204;BME280;49297;43.210;27.914;2023-10-19T12:33:10;101047.66;;;24.07;42.09
63204;BME280;49297;43.210;27.914;2023-10-19T12:35:40;101053.16;;;24.19;41.20
63204;BME280;49297;43.210;27.914;2023-10-19T12:38:19;101050.47;;;24.19;40.87
63204;BME280;49297;43.210;27.914;2023-10-19T12:40:47;101049.56;;;24.31;41.42
63204;BME280;49297;43.210;27.914;2023-10-19T12:43:14;101042.22;;;24.64;40.87
63204;BME280;49297;43.210;27.914;2023-10-19T12:45:40;101041.78;;;24.85;40.87
63204;BME280;49297;43.210;27.914;2023-10-19T12:48:05;101031.88;;;24.98;40.58
63204;BME280;49297;43.210;27.914;2023-10-19T12:50:31;101032.53;;;24.93;40.75
63204;BME280;49297;43.210;27.914;2023-10-19T12:52:57;101026.31;;;24.93;40.91
63204;BME280;49297;43.210;27.914;2023-10-19T12:55:23;101029.28;;;24.84;41.41
63204;BME280;49297;43.210;27.914;2023-10-19T12:57:54;101023.06;;;24.65;41.47